createdAt,value
2018-03-19T00:00:41.094Z,-0.40
2018-03-19T00:03:09.270Z,-0.40
2018-03-19T00:05:37.494Z,-0.40
2018-03-19T00:08:05.692Z,-0.50
2018-03-19T00:10:34.732Z,-0.50
2018-03-19T00:13:02.950Z,-0.50
2018-03-19T00:15:31.165Z,-0.60
2018-03-19T00:17:59.371Z,-0.60
2018-03-19T00:20:27.599Z,-0.60
2018-03-19T00:22:56.641Z,-0.70
2018-03-19T00:25:24.846Z,-0.70
2018-03-19T00:27:53.090Z,-0.60
2018-03-19T00:30:21.262Z,-0.60
2018-03-19T00:32:49.456Z,-0.70
2018-03-19T00:35:17.660Z,-0.70
2018-03-19T00:37:46.639Z,-0.70
2018-03-19T00:40:14.840Z,-0.80
2018-03-19T00:42:43.882Z,-0.70
2018-03-19T00:45:12.118Z,-0.80
2018-03-19T00:47:40.322Z,-0.70
2018-03-19T00:50:08.509Z,-0.70
2018-03-19T00:52:36.698Z,-0.70
2018-03-19T00:55:04.951Z,-0.80
2018-03-19T00:57:33.162Z,-0.80
2018-03-19T01:00:01.359Z,-0.80
2018-03-19T01:02:30.306Z,-0.80
2018-03-19T01:04:58.490Z,-0.80
2018-03-19T01:07:26.682Z,-0.80
2018-03-19T01:09:54.939Z,-0.80
2018-03-19T01:12:23.139Z,-0.90
2018-03-19T01:14:51.321Z,-0.90
2018-03-19T01:17:20.265Z,-0.90
2018-03-19T01:19:48.446Z,-0.90
2018-03-19T01:22:16.641Z,-0.90
2018-03-19T01:24:44.838Z,-0.80
2018-03-19T01:27:13.803Z,-0.80
2018-03-19T01:29:41.992Z,-0.90
2018-03-19T01:32:10.234Z,-0.80
2018-03-19T01:34:38.462Z,-0.70
2018-03-19T01:37:07.438Z,-0.70
2018-03-19T01:39:35.639Z,-0.80
2018-03-19T01:42:03.829Z,-0.70
2018-03-19T01:44:32.054Z,-0.70
2018-03-19T01:47:00.247Z,-0.70
2018-03-19T01:49:29.205Z,-0.60
2018-03-19T01:51:57.414Z,-0.70
2018-03-19T01:54:25.609Z,-0.60
2018-03-19T01:56:53.797Z,-0.60
2018-03-19T01:59:21.987Z,-0.50
2018-03-19T02:01:50.184Z,-0.60
2018-03-19T02:04:18.449Z,-0.60
2018-03-19T02:06:46.658Z,-0.60
2018-03-19T02:09:14.852Z,-0.60
2018-03-19T02:11:43.801Z,-0.60
2018-03-19T02:14:12.035Z,-0.60
2018-03-19T02:16:40.984Z,-0.60
2018-03-19T02:19:09.177Z,-0.60
2018-03-19T02:21:37.385Z,-0.60
2018-03-19T02:24:05.610Z,-0.60
2018-03-19T02:26:33.861Z,-0.60
2018-03-19T02:29:02.049Z,-0.60
2018-03-19T02:31:30.259Z,-0.70
2018-03-19T02:33:59.220Z,-0.70
2018-03-19T02:36:27.446Z,-0.80
2018-03-19T02:38:55.636Z,-0.70
2018-03-19T02:41:23.817Z,-0.70
2018-03-19T02:43:52.070Z,-0.80
2018-03-19T02:46:20.267Z,-0.90
2018-03-19T02:48:48.455Z,-0.90
2018-03-19T02:51:16.651Z,-0.90
2018-03-19T02:53:44.872Z,-0.90
2018-03-19T02:56:13.062Z,-0.90
2018-03-19T02:58:41.259Z,-0.90
2018-03-19T03:01:09.698Z,-0.90
2018-03-19T03:03:37.892Z,-0.80
2018-03-19T03:06:06.111Z,-0.80
2018-03-19T03:08:35.061Z,-0.90
2018-03-19T03:11:03.241Z,-0.90
2018-03-19T03:13:31.437Z,-0.80
2018-03-19T03:15:59.658Z,-0.80
2018-03-19T03:18:28.655Z,-0.80
2018-03-19T03:20:57.700Z,-0.80
2018-03-19T03:23:25.913Z,-0.90
2018-03-19T03:25:54.878Z,-0.80
2018-03-19T03:28:23.059Z,-0.90
2018-03-19T03:30:51.302Z,-0.80
2018-03-19T03:33:19.504Z,-0.80
2018-03-19T03:35:47.713Z,-0.80
2018-03-19T03:38:16.666Z,-0.80
2018-03-19T03:40:44.929Z,-0.90
2018-03-19T03:43:13.130Z,-0.80
2018-03-19T03:45:41.325Z,-0.80
2018-03-19T03:48:09.506Z,-0.80
2018-03-19T03:50:38.474Z,-0.80
2018-03-19T03:53:06.696Z,-0.90
2018-03-19T03:55:34.878Z,-0.80
2018-03-19T03:58:03.099Z,-0.80
2018-03-19T04:00:31.286Z,-0.70
2018-03-19T04:02:59.475Z,-0.70
2018-03-19T04:05:28.458Z,-0.80
2018-03-19T04:07:56.653Z,-0.80
2018-03-19T04:10:25.601Z,-0.80
2018-03-19T04:12:53.787Z,-0.90
2018-03-19T04:15:22.001Z,-0.80
2018-03-19T04:17:50.186Z,-0.80
2018-03-19T04:20:18.379Z,-0.80
2018-03-19T04:22:46.576Z,-0.80
2018-03-19T04:25:15.529Z,-0.80
2018-03-19T04:27:43.748Z,-0.90
2018-03-19T04:30:11.933Z,-0.90
2018-03-19T04:32:40.131Z,-0.90
2018-03-19T04:35:09.098Z,-0.90
2018-03-19T04:37:37.308Z,-1.00
2018-03-19T04:40:06.255Z,-0.90
2018-03-19T04:42:34.441Z,-0.90
2018-03-19T04:45:02.635Z,-0.80
2018-03-19T04:47:30.876Z,-0.80
2018-03-19T04:49:59.075Z,-0.80
2018-03-19T04:52:27.294Z,-0.90
2018-03-19T04:54:55.515Z,-0.90
2018-03-19T04:57:23.704Z,-0.90
2018-03-19T04:59:51.892Z,-0.90
2018-03-19T05:02:20.859Z,-0.80
2018-03-19T05:04:49.050Z,-0.90
2018-03-19T05:07:17.230Z,-0.80
2018-03-19T05:09:46.227Z,-0.80
2018-03-19T05:12:15.172Z,-0.90
2018-03-19T05:14:43.343Z,-0.90
2018-03-19T05:17:11.545Z,-0.90
2018-03-19T05:19:39.730Z,-0.90
2018-03-19T05:22:07.921Z,-0.90
2018-03-19T05:24:36.861Z,-0.90
2018-03-19T05:27:05.049Z,-1.00
2018-03-19T05:29:33.244Z,-0.90
2018-03-19T05:32:01.443Z,-0.90
2018-03-19T05:34:30.390Z,-0.90
2018-03-19T05:36:58.591Z,-0.90
2018-03-19T05:39:26.791Z,-1.00
2018-03-19T05:41:55.740Z,-0.90
2018-03-19T05:44:23.966Z,-1.00
2018-03-19T05:46:52.197Z,-0.90
2018-03-19T05:49:20.392Z,-0.90
2018-03-19T05:51:48.571Z,-0.80
2018-03-19T05:54:17.533Z,-0.60
2018-03-19T05:56:45.747Z,-0.70
2018-03-19T05:59:14.707Z,-0.50
2018-03-19T06:01:42.894Z,-0.60
2018-03-19T06:04:11.083Z,-0.50
2018-03-19T06:06:40.071Z,-0.60
2018-03-19T06:09:09.030Z,-0.60
2018-03-19T06:11:37.212Z,-0.70
2018-03-19T06:14:05.407Z,-0.70
2018-03-19T06:16:33.598Z,-0.60
2018-03-19T06:19:02.575Z,-0.50
2018-03-19T06:21:30.818Z,-0.60
2018-03-19T06:23:59.005Z,-0.50
2018-03-19T06:26:27.192Z,-0.50
2018-03-19T06:28:55.395Z,-0.50
2018-03-19T06:31:24.359Z,-0.40
2018-03-19T06:33:52.551Z,-0.40
2018-03-19T06:36:20.734Z,-0.30
2018-03-19T06:38:49.702Z,-0.30
2018-03-19T06:41:17.882Z,-0.30
2018-03-19T06:43:46.054Z,-0.30
2018-03-19T06:46:14.242Z,-0.20
2018-03-19T06:48:42.495Z,-0.20
2018-03-19T06:51:10.685Z,-0.20
2018-03-19T06:53:38.870Z,-0.20
2018-03-19T06:56:07.068Z,-0.20
2018-03-19T06:58:36.031Z,-0.20
2018-03-19T07:01:04.202Z,-0.20
2018-03-19T07:03:32.397Z,-0.10
2018-03-19T07:06:01.342Z,0.00
2018-03-19T07:08:29.539Z,-0.10
2018-03-19T07:10:57.726Z,0.10
2018-03-19T07:13:25.934Z,0.10
2018-03-19T07:15:54.129Z,0.10
2018-03-19T07:18:22.339Z,0.10
2018-03-19T07:20:50.538Z,0.20
2018-03-19T07:23:19.541Z,0.10
2018-03-19T07:25:48.550Z,0.10
2018-03-19T07:28:16.722Z,0.00
2018-03-19T07:30:44.908Z,-0.10
2018-03-19T07:33:13.202Z,-0.10
2018-03-19T07:35:41.388Z,0.00
2018-03-19T07:38:09.570Z,-0.10
2018-03-19T07:40:37.772Z,-0.10
2018-03-19T07:43:05.994Z,0.00
2018-03-19T07:45:34.181Z,0.10
2018-03-19T07:48:02.475Z,0.20
2018-03-19T07:50:31.368Z,0.30
2018-03-19T07:52:59.581Z,0.30
2018-03-19T07:55:28.518Z,0.40
2018-03-19T07:57:56.758Z,0.40
2018-03-19T08:00:24.939Z,0.40
2018-03-19T08:02:53.138Z,0.50
2018-03-19T08:05:21.318Z,0.60
2018-03-19T08:07:49.510Z,0.70
2018-03-19T08:10:17.695Z,0.80
2018-03-19T08:12:45.882Z,0.90
2018-03-19T08:15:14.116Z,0.90
2018-03-19T08:17:42.300Z,0.90
2018-03-19T08:20:10.506Z,1.00
2018-03-19T08:22:38.686Z,1.20
2018-03-19T08:25:07.657Z,1.10
2018-03-19T08:27:35.854Z,1.00
2018-03-19T08:30:04.798Z,1.10
2018-03-19T08:32:32.970Z,1.10
2018-03-19T08:35:01.147Z,1.20
2018-03-19T08:37:29.322Z,1.20
2018-03-19T08:39:57.589Z,1.30
2018-03-19T08:42:25.755Z,1.20
2018-03-19T08:44:53.942Z,1.10
2018-03-19T08:47:22.114Z,1.20
2018-03-19T08:49:51.079Z,0.90
2018-03-19T08:52:20.024Z,0.90
2018-03-19T08:54:48.213Z,0.90
2018-03-19T08:57:16.413Z,0.90
2018-03-19T08:59:45.356Z,0.80
2018-03-19T09:02:13.539Z,0.70
2018-03-19T09:04:41.728Z,0.50
2018-03-19T09:07:09.908Z,0.40
2018-03-19T09:09:38.101Z,0.50
2018-03-19T09:12:07.994Z,0.60
2018-03-19T09:14:36.239Z,0.50
2018-03-19T09:17:04.404Z,0.60
2018-03-19T09:19:32.578Z,0.70
2018-03-19T09:22:00.763Z,0.80
2018-03-19T09:24:30.914Z,0.80
2018-03-19T09:26:59.090Z,0.80
2018-03-19T09:29:27.263Z,0.90
2018-03-19T09:31:55.458Z,1.00
2018-03-19T09:34:24.409Z,0.90
2018-03-19T09:36:52.623Z,0.80
2018-03-19T09:39:20.796Z,1.00
2018-03-19T09:41:49.775Z,1.40
2018-03-19T09:44:17.941Z,1.30
2018-03-19T09:46:46.109Z,1.50
2018-03-19T09:49:14.291Z,1.60
2018-03-19T09:51:42.487Z,1.80
2018-03-19T09:54:11.443Z,1.90
2018-03-19T09:56:39.618Z,1.80
2018-03-19T09:59:07.787Z,1.90
2018-03-19T10:01:35.961Z,1.90
2018-03-19T10:04:04.158Z,1.90
2018-03-19T10:06:32.331Z,1.80
2018-03-19T10:09:00.499Z,1.70
2018-03-19T10:11:28.694Z,1.60
2018-03-19T10:13:56.866Z,1.70
2018-03-19T10:16:25.042Z,1.90
2018-03-19T10:18:53.216Z,1.80
2018-03-19T10:21:21.390Z,1.90
2018-03-19T10:23:49.556Z,2.00
2018-03-19T10:26:17.718Z,2.00
2018-03-19T10:28:45.889Z,2.10
2018-03-19T10:31:14.075Z,2.00
2018-03-19T10:33:42.251Z,2.00
2018-03-19T10:36:10.460Z,2.00
2018-03-19T10:38:39.443Z,2.00
2018-03-19T10:41:07.603Z,1.90
2018-03-19T10:43:35.774Z,1.90
2018-03-19T10:46:03.957Z,1.90
2018-03-19T10:48:32.124Z,1.80
2018-03-19T10:51:00.314Z,1.90
2018-03-19T10:53:28.505Z,1.90
2018-03-19T10:55:57.479Z,1.90
2018-03-19T10:58:25.653Z,1.80
2018-03-19T11:00:53.849Z,1.80
2018-03-19T11:03:28.337Z,1.70
2018-03-19T11:05:56.546Z,1.70
2018-03-19T11:08:30.929Z,1.30
2018-03-19T11:10:59.114Z,1.20
2018-03-19T11:13:27.330Z,1.10
2018-03-19T11:15:55.503Z,1.10
2018-03-19T11:18:23.686Z,1.10
2018-03-19T11:20:51.858Z,1.00
2018-03-19T11:23:20.034Z,1.00
2018-03-19T11:25:48.252Z,0.80
2018-03-19T11:28:16.418Z,0.80
2018-03-19T11:30:44.620Z,1.00
2018-03-19T11:33:12.802Z,1.00
2018-03-19T11:35:41.734Z,1.00
2018-03-19T11:38:09.923Z,0.90
2018-03-19T11:40:38.098Z,1.00
2018-03-19T11:43:06.280Z,1.20
2018-03-19T11:45:34.481Z,1.20
2018-03-19T11:48:02.650Z,1.30
2018-03-19T11:50:36.034Z,1.30
2018-03-19T11:53:04.674Z,1.30
2018-03-19T11:55:37.220Z,1.30
2018-03-19T11:58:06.169Z,1.30
2018-03-19T12:00:35.130Z,1.30
2018-03-19T12:03:04.605Z,1.30
2018-03-19T12:05:33.974Z,1.50
2018-03-19T12:08:02.142Z,1.40
2018-03-19T12:10:30.308Z,1.40
2018-03-19T12:12:58.492Z,1.50
2018-03-19T12:15:26.666Z,1.50
2018-03-19T12:17:54.851Z,1.40
2018-03-19T12:20:23.061Z,1.30
2018-03-19T12:22:51.235Z,1.20
2018-03-19T12:25:19.418Z,1.10
2018-03-19T12:27:48.361Z,1.10
2018-03-19T12:30:16.527Z,1.00
2018-03-19T12:32:44.716Z,1.10
2018-03-19T12:35:12.886Z,1.10
2018-03-19T12:37:41.052Z,1.20
2018-03-19T12:40:09.225Z,1.20
2018-03-19T12:42:37.440Z,1.10
2018-03-19T12:45:05.610Z,1.10
2018-03-19T12:47:33.780Z,1.30
2018-03-19T12:50:01.960Z,1.30
2018-03-19T12:52:30.132Z,1.10
2018-03-19T12:54:58.298Z,0.90
2018-03-19T12:57:26.482Z,0.90
2018-03-19T12:59:54.668Z,0.80
2018-03-19T13:02:22.852Z,0.80
2018-03-19T13:04:51.836Z,0.80
2018-03-19T13:07:20.122Z,0.80
2018-03-19T13:09:49.061Z,0.90
2018-03-19T13:12:17.229Z,0.80
2018-03-19T13:14:45.412Z,0.80
2018-03-19T13:17:13.570Z,0.80
2018-03-19T13:19:41.744Z,0.80
2018-03-19T13:22:09.930Z,0.80
2018-03-19T13:24:38.165Z,0.90
2018-03-19T13:27:06.296Z,1.00
2018-03-19T13:29:34.474Z,1.10
2018-03-19T13:32:02.642Z,1.10
2018-03-19T13:34:30.824Z,1.20
2018-03-19T13:36:58.993Z,1.30
2018-03-19T13:39:27.172Z,1.40
2018-03-19T13:41:55.338Z,1.50
2018-03-19T13:44:23.519Z,1.50
2018-03-19T13:46:51.688Z,1.60
2018-03-19T13:49:20.626Z,1.40
2018-03-19T13:51:49.561Z,1.50
2018-03-19T13:54:17.788Z,1.40
2018-03-19T13:56:45.967Z,1.70
2018-03-19T13:59:14.905Z,1.50
2018-03-19T14:01:43.083Z,1.50
2018-03-19T14:04:11.256Z,1.50
2018-03-19T14:06:39.439Z,1.50
2018-03-19T14:09:07.611Z,1.40
2018-03-19T14:11:35.809Z,1.30
2018-03-19T14:14:03.975Z,1.40
2018-03-19T14:16:32.148Z,1.30
2018-03-19T14:19:00.310Z,1.20
2018-03-19T14:21:28.522Z,1.10
2018-03-19T14:23:56.687Z,1.10
2018-03-19T14:26:24.915Z,1.00
2018-03-19T14:28:53.099Z,0.90
2018-03-19T14:31:21.277Z,0.90
2018-03-19T14:33:49.452Z,1.00
2018-03-19T14:36:17.709Z,1.00
2018-03-19T14:38:46.618Z,1.00
2018-03-19T14:41:14.978Z,1.00
2018-03-19T14:43:43.153Z,1.10
2018-03-19T14:46:11.325Z,1.10
2018-03-19T14:48:39.504Z,1.10
2018-03-19T14:51:07.699Z,1.20
2018-03-19T14:53:35.873Z,1.20
2018-03-19T14:56:04.053Z,1.10
2018-03-19T14:58:32.237Z,1.00
2018-03-19T15:01:00.401Z,1.00
2018-03-19T15:03:28.578Z,1.10
2018-03-19T15:05:56.757Z,1.10
2018-03-19T15:08:24.942Z,1.10
2018-03-19T15:10:53.123Z,1.00
2018-03-19T15:13:21.291Z,1.00
2018-03-19T15:15:49.466Z,1.00
2018-03-19T15:18:17.636Z,1.00
2018-03-19T15:20:45.819Z,0.90
2018-03-19T15:23:14.026Z,0.90
2018-03-19T15:25:43.035Z,0.90
2018-03-19T15:28:11.203Z,0.80
2018-03-19T15:30:39.383Z,0.90
2018-03-19T15:33:07.558Z,0.80
2018-03-19T15:35:35.739Z,0.80
2018-03-19T15:38:03.906Z,0.80
2018-03-19T15:40:32.834Z,0.80
2018-03-19T15:43:01.010Z,0.80
2018-03-19T15:45:29.181Z,0.80
2018-03-19T15:47:57.358Z,0.80
2018-03-19T15:50:25.571Z,0.80
2018-03-19T15:52:53.751Z,0.80
2018-03-19T15:55:22.711Z,0.70
2018-03-19T15:57:50.906Z,0.70
2018-03-19T16:00:19.082Z,0.70
2018-03-19T16:02:47.285Z,0.70
2018-03-19T16:05:16.234Z,0.70
2018-03-19T16:07:44.427Z,0.60
2018-03-19T16:10:12.622Z,0.70
2018-03-19T16:12:41.573Z,0.70
2018-03-19T16:15:10.139Z,0.60
2018-03-19T16:17:38.362Z,0.70
2018-03-19T16:20:06.510Z,0.70
2018-03-19T16:22:34.696Z,0.70
2018-03-19T16:25:02.883Z,0.70
2018-03-19T16:27:31.854Z,0.60
2018-03-19T16:30:00.019Z,0.50
2018-03-19T16:32:28.202Z,0.60
2018-03-19T16:34:56.378Z,0.50
2018-03-19T16:37:24.550Z,0.50
2018-03-19T16:39:52.715Z,0.50
2018-03-19T16:42:20.883Z,0.50
2018-03-19T16:44:49.051Z,0.50
2018-03-19T16:47:17.240Z,0.50
2018-03-19T16:49:45.413Z,0.40
2018-03-19T16:52:13.585Z,0.40
2018-03-19T16:54:41.748Z,0.30
2018-03-19T16:57:09.918Z,0.20
2018-03-19T16:59:38.109Z,0.20
2018-03-19T17:02:06.297Z,0.30
2018-03-19T17:04:34.476Z,0.30
2018-03-19T17:07:02.718Z,0.30
2018-03-19T17:09:30.843Z,0.30
2018-03-19T17:11:59.809Z,0.30
2018-03-19T17:14:27.985Z,0.20
2018-03-19T17:16:56.172Z,0.20
2018-03-19T17:19:24.377Z,0.10
2018-03-19T17:21:53.312Z,0.00
2018-03-19T17:24:21.487Z,-0.10
2018-03-19T17:26:50.692Z,0.00
2018-03-19T17:29:18.867Z,0.00
2018-03-19T17:31:47.054Z,0.00
2018-03-19T17:34:15.247Z,0.00
2018-03-19T17:36:43.422Z,0.00
2018-03-19T17:39:11.598Z,0.10
2018-03-19T17:41:39.819Z,0.00
2018-03-19T17:44:08.727Z,0.10
2018-03-19T17:46:36.919Z,0.00
2018-03-19T17:49:05.106Z,0.00
2018-03-19T17:51:33.286Z,0.10
2018-03-19T17:54:01.477Z,0.10
2018-03-19T17:56:30.558Z,0.10
2018-03-19T17:58:58.731Z,0.00
2018-03-19T18:01:27.707Z,0.00
2018-03-19T18:03:55.872Z,0.00
2018-03-19T18:06:24.051Z,0.00
2018-03-19T18:08:52.234Z,0.00
2018-03-19T18:11:20.442Z,0.00
2018-03-19T18:13:49.378Z,0.10
2018-03-19T18:16:17.560Z,0.00
2018-03-19T18:18:45.744Z,0.10
2018-03-19T18:21:13.924Z,0.10
2018-03-19T18:23:42.082Z,0.10
2018-03-19T18:26:11.029Z,0.10
2018-03-19T18:28:39.223Z,0.00
2018-03-19T18:31:07.434Z,0.10
2018-03-19T18:33:35.613Z,0.00
2018-03-19T18:36:03.799Z,0.00
2018-03-19T18:38:31.991Z,0.00
2018-03-19T18:41:00.946Z,-0.10
2018-03-19T18:43:29.142Z,-0.20
2018-03-19T18:45:58.147Z,-0.10
2018-03-19T18:48:26.342Z,-0.20
2018-03-19T18:50:54.518Z,-0.20
2018-03-19T18:53:22.702Z,-0.20
2018-03-19T18:55:50.915Z,-0.20
2018-03-19T18:58:19.119Z,-0.30
2018-03-19T19:00:48.118Z,-0.30
2018-03-19T19:03:17.077Z,-0.20
2018-03-19T19:05:45.277Z,-0.30
2018-03-19T19:08:14.251Z,-0.40
2018-03-19T19:10:42.454Z,-0.50
2018-03-19T19:13:11.410Z,-0.40
2018-03-19T19:15:39.589Z,-0.50
2018-03-19T19:18:07.792Z,-0.40
2018-03-19T19:20:36.752Z,-0.50
2018-03-19T19:23:04.938Z,-0.50
2018-03-19T19:25:33.149Z,-0.40
2018-03-19T19:28:02.105Z,-0.40
2018-03-19T19:30:30.298Z,-0.50
2018-03-19T19:32:58.560Z,-0.40
2018-03-19T19:35:26.771Z,-0.40
2018-03-19T19:37:54.992Z,-0.40
2018-03-19T19:40:23.188Z,-0.40
2018-03-19T19:42:51.436Z,-0.40
2018-03-19T19:45:19.620Z,-0.40
2018-03-19T19:47:47.815Z,-0.50
2018-03-19T19:50:16.036Z,-0.50
2018-03-19T19:52:44.215Z,-0.50
2018-03-19T19:55:12.390Z,-0.50
2018-03-19T19:57:40.590Z,-0.50
2018-03-19T20:00:08.836Z,-0.40
2018-03-19T20:02:37.014Z,-0.40
2018-03-19T20:05:05.230Z,-0.40
2018-03-19T20:07:33.426Z,-0.40
2018-03-19T20:10:01.615Z,-0.40
2018-03-19T20:12:30.615Z,-0.50
2018-03-19T20:14:58.834Z,-0.50
2018-03-19T20:17:27.022Z,-0.50
2018-03-19T20:19:55.243Z,-0.50
2018-03-19T20:22:24.194Z,-0.50
2018-03-19T20:24:52.804Z,-0.60
2018-03-19T20:27:21.777Z,-0.50
2018-03-19T20:29:49.999Z,-0.60
2018-03-19T20:32:18.210Z,-0.50
2018-03-19T20:34:46.834Z,-0.60
2018-03-19T20:37:15.801Z,-0.60
2018-03-19T20:39:43.990Z,-0.70
2018-03-19T20:42:12.181Z,-0.60
2018-03-19T20:44:41.167Z,-0.60
2018-03-19T20:47:10.117Z,-0.70
2018-03-19T20:49:38.302Z,-0.70
2018-03-19T20:52:07.311Z,-0.50
2018-03-19T20:54:35.551Z,-0.60
2018-03-19T20:57:03.748Z,-0.60
2018-03-19T20:59:31.955Z,-0.60
2018-03-19T21:02:00.135Z,-0.60
2018-03-19T21:04:29.128Z,-0.70
2018-03-19T21:06:58.084Z,-0.60
2018-03-19T21:09:26.268Z,-0.70
2018-03-19T21:11:54.457Z,-0.60
2018-03-19T21:14:22.665Z,-0.50
2018-03-19T21:16:51.610Z,-0.60
2018-03-19T21:19:19.818Z,-0.70
2018-03-19T21:21:48.771Z,-0.80
2018-03-19T21:24:16.954Z,-0.80
2018-03-19T21:26:45.161Z,-0.80
2018-03-19T21:29:14.119Z,-0.80
2018-03-19T21:31:42.326Z,-0.90
2018-03-19T21:34:11.291Z,-0.80
2018-03-19T21:36:39.495Z,-0.90
2018-03-19T21:39:08.462Z,-0.90
2018-03-19T21:41:36.634Z,-0.90
2018-03-19T21:44:04.829Z,-0.90
2018-03-19T21:46:33.011Z,-0.90
2018-03-19T21:49:01.967Z,-0.90
2018-03-19T21:51:30.154Z,-0.90
2018-03-19T21:53:58.338Z,-0.90
2018-03-19T21:56:26.549Z,-1.00
2018-03-19T21:58:54.744Z,-1.10
2018-03-19T22:01:22.933Z,-1.10
2018-03-19T22:03:51.165Z,-1.20
2018-03-19T22:06:20.114Z,-1.20
2018-03-19T22:08:48.328Z,-1.30
2018-03-19T22:11:17.287Z,-1.20
2018-03-19T22:13:45.467Z,-1.30
2018-03-19T22:16:13.693Z,-1.20
2018-03-19T22:18:41.887Z,-1.20
2018-03-19T22:21:10.082Z,-1.20
2018-03-19T22:23:38.268Z,-1.10
2018-03-19T22:26:06.472Z,-1.20
2018-03-19T22:28:35.426Z,-1.20
2018-03-19T22:31:03.622Z,-1.30
2018-03-19T22:33:31.833Z,-1.30
2018-03-19T22:36:00.061Z,-1.40
2018-03-19T22:38:28.248Z,-1.30
2018-03-19T22:40:56.449Z,-1.40
2018-03-19T22:43:24.679Z,-1.30
2018-03-19T22:45:52.862Z,-1.30
2018-03-19T22:48:21.043Z,-1.30
2018-03-19T22:50:49.226Z,-1.30
2018-03-19T22:53:18.192Z,-1.30
2018-03-19T22:55:46.369Z,-1.40
2018-03-19T22:58:14.560Z,-1.40
2018-03-19T23:00:42.743Z,-1.40
2018-03-19T23:03:11.707Z,-1.50
2018-03-19T23:05:39.936Z,-1.60
2018-03-19T23:08:08.126Z,-1.50
2018-03-19T23:10:36.303Z,-1.50
2018-03-19T23:13:04.486Z,-1.40
2018-03-19T23:15:32.683Z,-1.40
2018-03-19T23:18:01.641Z,-1.40
2018-03-19T23:20:29.815Z,-1.50
2018-03-19T23:22:58.050Z,-1.50
2018-03-19T23:25:26.219Z,-1.50
2018-03-19T23:27:54.502Z,-1.50
2018-03-19T23:30:22.684Z,-1.50
2018-03-19T23:32:51.646Z,-1.50
2018-03-19T23:35:19.828Z,-1.50
2018-03-19T23:37:48.016Z,-1.50
2018-03-19T23:40:16.199Z,-1.50
2018-03-19T23:42:45.158Z,-1.40
2018-03-19T23:45:13.370Z,-1.50
2018-03-19T23:47:42.314Z,-1.50
2018-03-19T23:50:10.508Z,-1.50
2018-03-19T23:52:38.686Z,-1.50
2018-03-19T23:55:06.867Z,-1.40
2018-03-19T23:57:35.096Z,-1.50
